createdAt,value
2019-04-05T04:43:22.256Z,4.00
2019-04-05T04:44:22.198Z,4.00
2019-04-05T04:45:22.186Z,4.00
2019-04-05T04:47:26.851Z,4.00
2019-04-05T04:48:22.155Z,4.00
2019-04-05T04:49:22.145Z,4.00
2019-04-05T04:50:22.121Z,4.00
2019-04-05T04:51:22.115Z,8.00
2019-04-05T04:52:22.110Z,8.00
2019-04-05T04:53:22.103Z,8.00
2019-04-05T04:54:22.126Z,8.00
2019-04-05T04:55:22.073Z,8.00
2019-04-05T04:56:22.071Z,12.00
2019-04-05T04:57:22.054Z,12.00
2019-04-05T04:58:22.029Z,16.00
2019-04-05T04:59:22.018Z,16.00
2019-04-05T05:00:22.044Z,20.00
2019-04-05T05:01:21.998Z,20.00
2019-04-05T05:03:21.974Z,24.00
2019-04-05T05:04:21.961Z,28.00
2019-04-05T05:05:21.998Z,24.00
2019-04-05T05:06:21.940Z,28.00
2019-04-05T05:07:21.932Z,28.00
2019-04-05T05:08:21.920Z,28.00
2019-04-05T05:09:21.948Z,32.00
2019-04-05T05:10:21.895Z,32.00
2019-04-05T05:11:21.937Z,36.00
2019-04-05T05:13:21.860Z,36.00
2019-04-05T05:14:21.863Z,36.00
2019-04-05T05:15:21.864Z,44.00
2019-04-05T05:16:21.826Z,44.00
2019-04-05T05:17:21.819Z,44.00
2019-04-05T05:18:21.804Z,52.00
2019-04-05T05:19:21.788Z,48.00
2019-04-05T05:20:21.824Z,52.00
2019-04-05T05:21:21.763Z,56.00
2019-04-05T05:22:21.766Z,60.00
2019-04-05T05:23:21.747Z,64.00
2019-04-05T05:24:21.785Z,76.00
2019-04-05T05:25:21.724Z,84.00
2019-04-05T05:26:43.496Z,92.00
2019-04-05T05:27:43.488Z,100.00
2019-04-05T05:28:43.462Z,108.00
2019-04-05T05:29:43.452Z,120.00
2019-04-05T05:30:43.444Z,132.00
2019-04-05T05:31:43.422Z,140.00
2019-04-05T05:32:43.413Z,144.00
2019-04-05T05:33:44.407Z,148.00
2019-04-05T05:34:43.391Z,152.00
2019-04-05T05:35:43.389Z,148.00
2019-04-05T05:36:43.411Z,160.00
2019-04-05T05:37:43.358Z,164.00
2019-04-05T05:38:43.353Z,180.00
2019-04-05T05:39:43.343Z,192.00
2019-04-05T05:40:43.338Z,200.00
2019-04-05T05:41:43.381Z,208.00
2019-04-05T05:42:43.305Z,208.00
2019-04-05T05:43:43.297Z,216.00
2019-04-05T05:44:43.296Z,232.00
2019-04-05T05:45:43.280Z,252.00
2019-04-05T05:46:43.272Z,272.00
2019-04-05T05:47:51.675Z,284.00
2019-04-05T05:49:05.620Z,304.00
2019-04-05T05:50:05.599Z,308.00
2019-04-05T05:51:05.590Z,320.00
2019-04-05T05:52:05.578Z,328.00
2019-04-05T05:53:05.572Z,328.00
2019-04-05T05:54:05.568Z,332.00
2019-04-05T05:55:05.556Z,336.00
2019-04-05T05:56:05.543Z,340.00
2019-04-05T05:57:05.524Z,348.00
2019-04-05T05:58:05.519Z,352.00
2019-04-05T05:59:05.504Z,344.00
2019-04-05T06:00:05.497Z,348.00
2019-04-05T06:01:05.478Z,348.00
2019-04-05T06:02:07.214Z,344.00
2019-04-05T06:03:06.407Z,364.00
2019-04-05T06:04:05.448Z,376.00
2019-04-05T06:05:05.431Z,384.00
2019-04-05T06:06:05.426Z,400.00
2019-04-05T06:07:05.454Z,412.00
2019-04-05T06:08:05.404Z,424.00
2019-04-05T06:09:05.402Z,440.00
2019-04-05T06:10:05.383Z,464.00
2019-04-05T06:11:05.389Z,468.00
2019-04-05T06:12:05.357Z,468.00
2019-04-05T06:13:07.275Z,468.00
2019-04-05T06:14:05.347Z,460.00
2019-04-05T06:15:05.346Z,468.00
2019-04-05T06:16:05.409Z,472.00
2019-04-05T06:17:05.350Z,480.00
2019-04-05T06:18:05.352Z,500.00
2019-04-05T06:19:05.306Z,516.00
2019-04-05T06:20:05.305Z,536.00
2019-04-05T06:21:05.257Z,544.00
2019-04-05T06:22:05.258Z,560.00
2019-04-05T06:23:05.230Z,564.00
2019-04-05T06:24:05.488Z,560.00
2019-04-05T06:25:05.241Z,556.00
2019-04-05T06:26:05.196Z,556.00
2019-04-05T06:27:05.187Z,568.00
2019-04-05T06:28:05.186Z,584.00
2019-04-05T06:29:05.188Z,604.00
2019-04-05T06:30:05.209Z,628.00
2019-04-05T06:31:05.190Z,640.00
2019-04-05T06:32:05.130Z,656.00
2019-04-05T06:33:05.122Z,660.00
2019-04-05T06:34:05.110Z,656.00
2019-04-05T06:35:05.098Z,660.00
2019-04-05T06:36:05.098Z,680.00
2019-04-05T06:37:05.075Z,688.00
2019-04-05T06:38:05.073Z,700.00
2019-04-05T06:39:05.057Z,696.00
2019-04-05T06:40:05.042Z,704.00
2019-04-05T06:41:05.039Z,712.00
2019-04-05T06:42:05.022Z,724.00
2019-04-05T06:43:06.779Z,724.00
2019-04-05T06:44:05.016Z,740.00
2019-04-05T06:45:05.037Z,736.00
2019-04-05T06:46:05.105Z,736.00
2019-04-05T06:47:04.970Z,748.00
2019-04-05T06:48:18.113Z,736.00
2019-04-05T06:49:27.664Z,752.00
2019-04-05T06:50:27.662Z,776.00
2019-04-05T06:51:27.653Z,804.00
2019-04-05T06:52:27.632Z,828.00
2019-04-05T06:53:27.686Z,844.00
2019-04-05T06:54:27.623Z,844.00
2019-04-05T06:55:27.597Z,840.00
2019-04-05T06:56:27.580Z,852.00
2019-04-05T06:57:27.578Z,868.00
2019-04-05T06:58:29.290Z,884.00
2019-04-05T06:59:27.554Z,904.00
2019-04-05T07:00:27.549Z,920.00
2019-04-05T07:01:27.659Z,924.00
2019-04-05T07:02:27.552Z,932.00
2019-04-05T07:03:27.541Z,948.00
2019-04-05T07:04:27.504Z,968.00
2019-04-05T07:05:27.488Z,956.00
2019-04-05T07:06:27.563Z,956.00
2019-04-05T07:07:27.472Z,948.00
2019-04-05T07:08:27.453Z,948.00
2019-04-05T07:09:27.460Z,952.00
2019-04-05T07:10:27.434Z,964.00
2019-04-05T07:11:27.502Z,980.00
2019-04-05T07:12:27.406Z,996.00
2019-04-05T07:13:27.725Z,1004.00
2019-04-05T07:14:27.399Z,1028.00
2019-04-05T07:15:27.406Z,1052.00
2019-04-05T07:16:27.374Z,1084.00
2019-04-05T07:17:27.578Z,1120.00
2019-04-05T07:18:35.677Z,1152.00
2019-04-05T07:19:49.739Z,1176.00
2019-04-05T07:20:49.696Z,1192.00
2019-04-05T07:21:49.690Z,1224.00
2019-04-05T07:22:49.669Z,1232.00
2019-04-05T07:23:49.654Z,1248.00
2019-04-05T07:24:49.721Z,1256.00
2019-04-05T07:25:49.654Z,1252.00
2019-04-05T07:26:49.618Z,1256.00
2019-04-05T07:27:49.607Z,1260.00
2019-04-05T07:28:49.606Z,1276.00
2019-04-05T07:29:49.601Z,1308.00
2019-04-05T07:30:49.597Z,1328.00
2019-04-05T07:31:49.622Z,1316.00
2019-04-05T07:32:49.550Z,1324.00
2019-04-05T07:33:49.543Z,1308.00
2019-04-05T07:34:49.534Z,1316.00
2019-04-05T07:35:49.524Z,1344.00
2019-04-05T07:36:49.510Z,1364.00
2019-04-05T07:37:49.498Z,1364.00
2019-04-05T07:38:49.490Z,1400.00
2019-04-05T07:39:49.496Z,1456.00
2019-04-05T07:40:49.469Z,1480.00
2019-04-05T07:41:49.469Z,1512.00
2019-04-05T07:42:49.443Z,1564.00
2019-04-05T07:43:49.436Z,1564.00
2019-04-05T07:44:49.429Z,1600.00
2019-04-05T07:45:49.407Z,1604.00
2019-04-05T07:46:49.401Z,1624.00
2019-04-05T07:47:49.389Z,1624.00
2019-04-05T07:48:49.381Z,1684.00
2019-04-05T07:49:49.368Z,1668.00
2019-04-05T07:50:49.351Z,1604.00
2019-04-05T07:51:49.386Z,1568.00
2019-04-05T07:52:49.334Z,1568.00
2019-04-05T07:53:49.326Z,1676.00
2019-04-05T07:54:49.307Z,1644.00
2019-04-05T07:55:49.305Z,1632.00
2019-04-05T07:56:49.283Z,1612.00
2019-04-05T07:57:49.272Z,1632.00
2019-04-05T07:58:49.267Z,1636.00
2019-04-05T07:59:49.277Z,1660.00
2019-04-05T08:00:49.249Z,1668.00
2019-04-05T08:01:49.351Z,1568.00
2019-04-05T08:02:49.252Z,1508.00
2019-04-05T08:03:49.236Z,1484.00
2019-04-05T08:04:49.220Z,1472.00
2019-04-05T08:05:49.223Z,1476.00
2019-04-05T08:06:49.180Z,1504.00
2019-04-05T08:07:49.217Z,1532.00
2019-04-05T08:08:49.196Z,1520.00
2019-04-05T08:09:49.177Z,1516.00
2019-04-05T08:10:49.176Z,1480.00
2019-04-05T08:11:49.253Z,1464.00
2019-04-05T08:12:49.157Z,1480.00
2019-04-05T08:13:49.100Z,1540.00
2019-04-05T08:14:49.094Z,1576.00
2019-04-05T08:15:49.095Z,1600.00
2019-04-05T08:16:49.068Z,1616.00
2019-04-05T08:17:49.072Z,1636.00
2019-04-05T08:18:57.775Z,1636.00
2019-04-05T08:20:11.327Z,1616.00
2019-04-05T08:21:11.337Z,1628.00
2019-04-05T08:22:11.353Z,1628.00
2019-04-05T08:23:11.328Z,1652.00
2019-04-05T08:24:11.286Z,1700.00
2019-04-05T08:25:11.251Z,1728.00
2019-04-05T08:26:11.249Z,1736.00
2019-04-05T08:27:11.242Z,1720.00
2019-04-05T08:28:11.239Z,1740.00
2019-04-05T08:29:11.210Z,1756.00
2019-04-05T08:30:11.211Z,1776.00
2019-04-05T08:31:14.341Z,1808.00
2019-04-05T08:32:14.723Z,1840.00
2019-04-05T08:33:11.181Z,1844.00
2019-04-05T08:34:11.172Z,1824.00
2019-04-05T08:35:11.143Z,1796.00
2019-04-05T08:36:11.170Z,1800.00
2019-04-05T08:37:11.128Z,1824.00
2019-04-05T08:38:11.148Z,1852.00
2019-04-05T08:39:11.267Z,1868.00
2019-04-05T08:40:11.094Z,1884.00
2019-04-05T08:41:11.104Z,1904.00
2019-04-05T08:42:11.136Z,1908.00
2019-04-05T08:43:11.056Z,1904.00
2019-04-05T08:44:11.043Z,1908.00
2019-04-05T08:45:11.055Z,1948.00
2019-04-05T08:46:11.251Z,1996.00
2019-04-05T08:47:11.052Z,2068.00
2019-04-05T08:48:11.002Z,2104.00
2019-04-05T08:49:11.778Z,2116.00
2019-04-05T08:50:10.986Z,2112.00
2019-04-05T08:51:10.991Z,2092.00
2019-04-05T08:52:10.966Z,2052.00
2019-04-05T08:53:10.965Z,1984.00
2019-04-05T08:54:10.956Z,1904.00
2019-04-05T08:55:10.937Z,1828.00
2019-04-05T08:56:10.928Z,1808.00
2019-04-05T08:57:10.931Z,1732.00
2019-04-05T08:58:10.899Z,1728.00
2019-04-05T08:59:10.891Z,1884.00
2019-04-05T09:00:10.915Z,1940.00
2019-04-05T09:01:10.860Z,1960.00
2019-04-05T09:02:10.857Z,1964.00
2019-04-05T09:03:12.047Z,2008.00
2019-04-05T09:04:10.857Z,2024.00
2019-04-05T09:05:10.833Z,2040.00
2019-04-05T09:06:10.823Z,2032.00
2019-04-05T09:07:10.797Z,1944.00
2019-04-05T09:08:10.813Z,1844.00
2019-04-05T09:09:10.784Z,1848.00
2019-04-05T09:10:10.766Z,1940.00
2019-04-05T09:11:10.753Z,1880.00
2019-04-05T09:12:10.749Z,1780.00
2019-04-05T09:13:10.741Z,1708.00
2019-04-05T09:14:10.732Z,1688.00
2019-04-05T09:15:10.710Z,1760.00
2019-04-05T09:31:47.300Z,2152.00
2019-04-05T09:32:47.308Z,2196.00
2019-04-05T09:33:47.293Z,2116.00
2019-04-05T09:34:47.269Z,2044.00
2019-04-05T09:35:47.263Z,1984.00
2019-04-05T09:36:47.246Z,1924.00
2019-04-05T09:37:47.241Z,1956.00
2019-04-05T09:38:47.230Z,2052.00
2019-04-05T09:39:47.243Z,2008.00
2019-04-05T09:40:47.206Z,1964.00
2019-04-05T09:41:47.193Z,1900.00
2019-04-05T09:42:47.200Z,1896.00
2019-04-05T09:43:47.197Z,2048.00
2019-04-05T09:44:47.187Z,2232.00
2019-04-05T09:45:47.161Z,2284.00
2019-04-05T09:46:51.059Z,2252.00
2019-04-05T09:47:47.120Z,2204.00
2019-04-05T09:48:47.110Z,2212.00
2019-04-05T09:49:47.118Z,2224.00
2019-04-05T09:50:47.079Z,2228.00
2019-04-05T09:51:47.094Z,2148.00
2019-04-05T09:52:47.071Z,1948.00
2019-04-05T09:53:47.050Z,1736.00
2019-04-05T09:54:47.058Z,1600.00
2019-04-05T09:55:47.026Z,1688.00
2019-04-05T09:56:47.050Z,1796.00
2019-04-05T09:57:47.043Z,1716.00
2019-04-05T09:58:46.996Z,1492.00
2019-04-05T09:59:46.976Z,1260.00
2019-04-05T10:00:46.972Z,1168.00
2019-04-05T10:01:46.966Z,1192.00
2019-04-05T10:02:47.045Z,1456.00
2019-04-05T10:03:46.975Z,1628.00
2019-04-05T10:04:46.982Z,1664.00
2019-04-05T10:05:47.281Z,1692.00
2019-04-05T10:06:46.965Z,1596.00
2019-04-05T10:07:54.847Z,1520.00
2019-04-05T10:09:08.699Z,1532.00
2019-04-05T10:10:08.676Z,1672.00
2019-04-05T10:11:08.678Z,1696.00
2019-04-05T10:12:08.625Z,1632.00
2019-04-05T10:13:09.895Z,1560.00
2019-04-05T10:14:08.594Z,1460.00
2019-04-05T10:15:08.599Z,1360.00
2019-04-05T10:16:08.586Z,1396.00
2019-04-05T10:17:08.571Z,1432.00
2019-04-05T10:18:08.625Z,1412.00
2019-04-05T10:19:08.607Z,1380.00
2019-04-05T10:20:08.545Z,1376.00
2019-04-05T10:21:08.517Z,1424.00
2019-04-05T10:22:08.509Z,1436.00
2019-04-05T10:23:08.509Z,1480.00
2019-04-05T10:24:08.522Z,1628.00
2019-04-05T10:25:08.476Z,1848.00
2019-04-05T10:26:08.487Z,2264.00
2019-04-05T10:27:08.462Z,2168.00
2019-04-05T10:28:08.443Z,2080.00
2019-04-05T10:29:08.442Z,1780.00
2019-04-05T10:30:08.431Z,1544.00
2019-04-05T10:31:08.407Z,1412.00
2019-04-05T10:32:08.396Z,1304.00
2019-04-05T10:33:08.385Z,1164.00
2019-04-05T10:34:08.385Z,1104.00
2019-04-05T10:35:08.367Z,1092.00
2019-04-05T10:36:08.371Z,1156.00
2019-04-05T10:37:08.342Z,1208.00
2019-04-05T10:38:08.342Z,1220.00
2019-04-05T10:39:08.315Z,1240.00
2019-04-05T10:40:08.314Z,1300.00
2019-04-05T10:41:08.297Z,1408.00
2019-04-05T10:42:08.300Z,1584.00
2019-04-05T10:43:08.280Z,1756.00
2019-04-05T10:44:08.260Z,1840.00
2019-04-05T10:45:08.279Z,1904.00
2019-04-05T10:46:08.248Z,1972.00
2019-04-05T10:47:08.235Z,1916.00
2019-04-05T10:48:08.237Z,1820.00
2019-04-05T10:49:08.226Z,1860.00
2019-04-05T10:50:08.217Z,1988.00
2019-04-05T10:51:08.230Z,2056.00
2019-04-05T10:52:08.186Z,2336.00
2019-04-05T10:53:08.202Z,2372.00
2019-04-05T10:54:09.594Z,2448.00
2019-04-05T10:55:08.167Z,2568.00
2019-04-05T10:56:08.134Z,2504.00
2019-04-05T10:57:29.676Z,2456.00
2019-04-05T10:58:30.902Z,2364.00
2019-04-05T10:59:30.446Z,2172.00
2019-04-05T11:00:30.456Z,2084.00
2019-04-05T11:01:30.465Z,2032.00
2019-04-05T11:02:30.389Z,1964.00
2019-04-05T11:03:30.445Z,1984.00
2019-04-05T11:04:30.372Z,2056.00
2019-04-05T11:05:30.371Z,2012.00
2019-04-05T11:06:30.386Z,2140.00
2019-04-05T11:07:30.331Z,2072.00
2019-04-05T11:08:30.613Z,1920.00
2019-04-05T11:09:30.319Z,1824.00
2019-04-05T11:10:30.364Z,1716.00
2019-04-05T11:11:30.319Z,1568.00
2019-04-05T11:12:30.276Z,1376.00
2019-04-05T11:13:30.263Z,1240.00
2019-04-05T11:14:30.295Z,1248.00
2019-04-05T11:15:31.050Z,1256.00
2019-04-05T11:16:30.233Z,1284.00
2019-04-05T11:17:30.269Z,1364.00
2019-04-05T11:18:30.660Z,1432.00
2019-04-05T11:19:32.278Z,1524.00
2019-04-05T11:20:30.183Z,1548.00
2019-04-05T11:21:30.188Z,1556.00
2019-04-05T11:22:30.211Z,1660.00
2019-04-05T11:23:30.181Z,1744.00
2019-04-05T11:24:30.143Z,1772.00
2019-04-05T11:25:30.138Z,1892.00
2019-04-05T11:26:30.123Z,2108.00
2019-04-05T11:27:30.102Z,2300.00
2019-04-05T11:28:30.097Z,2304.00
2019-04-05T11:29:30.077Z,2196.00
2019-04-05T11:30:30.072Z,2152.00
2019-04-05T11:31:30.062Z,2108.00
2019-04-05T11:32:30.056Z,2152.00
2019-04-05T11:33:30.063Z,2272.00
2019-04-05T11:34:30.039Z,2356.00
2019-04-05T11:35:30.008Z,2324.00
2019-04-05T11:36:30.013Z,2276.00
2019-04-05T11:37:30.015Z,2156.00
2019-04-05T11:38:30.007Z,2092.00
2019-04-05T11:39:29.963Z,2072.00
2019-04-05T11:40:29.954Z,2004.00
2019-04-05T11:41:29.947Z,1908.00
2019-04-05T11:42:32.903Z,1756.00
2019-04-05T11:43:31.353Z,1712.00
2019-04-05T11:44:29.917Z,1652.00
2019-04-05T11:45:29.901Z,1572.00
2019-04-05T11:46:29.923Z,1588.00
2019-04-05T11:47:29.887Z,1684.00
2019-04-05T11:48:30.464Z,1760.00
2019-04-05T11:49:29.857Z,1644.00
2019-04-05T11:50:34.774Z,1496.00
2019-04-05T11:51:29.845Z,1280.00
2019-04-05T11:52:29.826Z,1136.00
2019-04-05T11:53:29.865Z,1060.00
2019-04-05T11:54:29.813Z,992.00
2019-04-05T11:55:29.783Z,948.00
2019-04-05T11:56:29.792Z,892.00
2019-04-05T11:57:29.776Z,872.00
2019-04-05T11:58:30.832Z,876.00
2019-04-05T11:59:29.756Z,876.00
2019-04-05T12:00:29.733Z,912.00
2019-04-05T12:01:29.743Z,944.00
2019-04-05T12:02:29.717Z,952.00
2019-04-05T12:03:29.704Z,992.00
2019-04-05T12:04:29.683Z,1000.00
2019-04-05T12:05:29.674Z,1004.00
2019-04-05T12:06:29.727Z,972.00
2019-04-05T12:07:29.681Z,932.00
2019-04-05T12:08:29.674Z,916.00
2019-04-05T12:09:29.631Z,896.00
2019-04-05T12:10:31.996Z,864.00
2019-04-05T12:11:29.610Z,856.00
2019-04-05T12:12:29.619Z,864.00
2019-04-05T12:13:29.583Z,880.00
2019-04-05T12:14:30.686Z,932.00
2019-04-05T12:15:29.762Z,996.00
2019-04-05T12:16:29.551Z,1072.00
2019-04-05T12:17:29.577Z,1104.00
2019-04-05T12:18:29.535Z,1116.00
2019-04-05T12:19:29.577Z,1100.00
2019-04-05T12:20:30.789Z,1092.00
2019-04-05T12:21:29.496Z,1084.00
2019-04-05T12:22:29.485Z,1080.00
2019-04-05T12:23:32.661Z,1088.00
2019-04-05T12:24:32.441Z,1052.00
2019-04-05T12:25:29.447Z,1052.00
2019-04-05T12:26:29.433Z,1080.00
2019-04-05T12:27:29.423Z,1052.00
2019-04-05T12:28:29.412Z,984.00
2019-04-05T12:29:29.401Z,908.00
2019-04-05T12:30:29.392Z,856.00
2019-04-05T12:31:29.381Z,808.00
2019-04-05T12:32:34.637Z,800.00
2019-04-05T12:33:52.419Z,788.00
2019-04-05T12:34:52.592Z,776.00
2019-04-05T12:35:53.684Z,788.00
2019-04-05T12:36:52.577Z,812.00
2019-04-05T12:37:55.497Z,796.00
2019-04-05T12:38:54.083Z,812.00
2019-04-05T12:39:51.510Z,852.00
2019-04-05T12:40:51.495Z,856.00
2019-04-05T12:41:51.482Z,864.00
2019-04-05T12:42:52.978Z,868.00
2019-04-05T12:43:51.466Z,888.00
2019-04-05T12:44:51.471Z,832.00
2019-04-05T12:45:51.441Z,728.00
2019-04-05T12:46:51.466Z,700.00
2019-04-05T12:47:51.416Z,676.00
2019-04-05T12:48:51.406Z,660.00
2019-04-05T12:49:51.391Z,668.00
2019-04-05T12:51:00.989Z,676.00
2019-04-05T12:52:22.637Z,748.00
2019-04-05T12:53:35.466Z,888.00
2019-04-05T12:54:35.443Z,1008.00
2019-04-05T12:55:35.918Z,1036.00
2019-04-05T12:56:35.435Z,1008.00
2019-04-05T12:57:35.418Z,960.00
2019-04-05T12:58:35.401Z,920.00
2019-04-05T12:59:35.399Z,928.00
2019-04-05T13:00:35.379Z,960.00
2019-04-05T13:01:35.372Z,1012.00
2019-04-05T13:02:35.373Z,1036.00
2019-04-05T13:03:35.609Z,1056.00
2019-04-05T13:04:35.347Z,1040.00
2019-04-05T13:05:35.691Z,968.00
2019-04-05T13:06:35.320Z,956.00
2019-04-05T13:07:35.481Z,920.00
2019-04-05T13:08:35.289Z,952.00
2019-04-05T13:09:35.310Z,972.00
2019-04-05T13:10:35.293Z,1012.00
2019-04-05T13:11:35.254Z,1084.00
2019-04-05T13:12:35.247Z,1120.00
2019-04-05T13:13:35.409Z,1112.00
2019-04-05T13:14:35.225Z,1132.00
2019-04-05T13:15:35.209Z,1180.00
2019-04-05T13:16:35.200Z,1276.00
2019-04-05T13:17:35.207Z,1356.00
2019-04-05T13:18:35.177Z,1464.00
2019-04-05T13:19:35.169Z,1532.00
2019-04-05T13:20:36.153Z,1604.00
2019-04-05T13:21:35.144Z,1712.00
2019-04-05T13:22:35.137Z,1816.00
2019-04-05T13:23:35.852Z,1896.00
2019-04-05T13:24:35.122Z,1928.00
2019-04-05T13:25:35.109Z,1880.00
2019-04-05T13:26:36.777Z,1756.00
2019-04-05T13:27:35.079Z,1596.00
2019-04-05T13:28:35.076Z,1496.00
2019-04-05T13:29:35.073Z,1464.00
2019-04-05T13:30:35.044Z,1456.00
2019-04-05T13:31:35.044Z,1432.00
2019-04-05T13:32:35.024Z,1388.00
2019-04-05T13:33:35.035Z,1492.00
2019-04-05T13:34:35.004Z,1568.00
2019-04-05T13:35:34.991Z,1704.00
2019-04-05T13:36:34.998Z,1740.00
2019-04-05T13:37:34.986Z,1736.00
2019-04-05T13:38:34.955Z,1712.00
2019-04-05T13:39:34.945Z,1596.00
2019-04-05T13:40:34.973Z,1488.00
2019-04-05T13:41:34.923Z,1396.00
2019-04-05T13:42:35.658Z,1348.00
2019-04-05T13:43:34.909Z,1316.00
2019-04-05T13:44:34.896Z,1220.00
2019-04-05T13:45:34.880Z,1208.00
2019-04-05T13:46:38.141Z,1272.00
2019-04-05T13:47:37.922Z,1284.00
2019-04-05T13:48:34.860Z,1240.00
2019-04-05T13:49:34.831Z,1124.00
2019-04-05T13:50:34.814Z,1052.00
2019-04-05T13:51:34.822Z,1040.00
2019-04-05T13:52:34.803Z,1004.00
2019-04-05T13:53:34.791Z,1048.00
2019-04-05T13:54:34.778Z,972.00
2019-04-05T13:55:34.767Z,964.00
2019-04-05T13:56:34.753Z,1000.00
2019-04-05T13:57:34.746Z,1032.00
2019-04-05T13:58:34.734Z,1080.00
2019-04-05T13:59:34.719Z,1116.00
2019-04-05T14:00:34.722Z,1112.00
2019-04-05T14:01:34.705Z,1108.00
2019-04-05T14:02:34.695Z,1124.00
2019-04-05T14:03:34.673Z,1140.00
2019-04-05T14:04:34.679Z,1132.00
2019-04-05T14:05:34.640Z,1088.00
2019-04-05T14:06:34.668Z,1080.00
2019-04-05T14:07:34.648Z,1048.00
2019-04-05T14:08:36.332Z,1008.00
2019-04-05T14:09:34.616Z,984.00
2019-04-05T14:10:34.606Z,1016.00
2019-04-05T14:11:34.588Z,1048.00
2019-04-05T14:12:34.577Z,1076.00
2019-04-05T14:13:34.571Z,1104.00
2019-04-05T14:14:34.561Z,1124.00
2019-04-05T14:15:34.554Z,1168.00
2019-04-05T14:16:34.549Z,1196.00
2019-04-05T14:17:34.526Z,1212.00
2019-04-05T14:18:34.536Z,1164.00
2019-04-05T14:19:34.497Z,1100.00
2019-04-05T14:20:34.492Z,1080.00
2019-04-05T14:21:40.740Z,1136.00
2019-04-05T14:22:56.443Z,1280.00
2019-04-05T14:23:56.606Z,1384.00
2019-04-05T14:24:56.860Z,1464.00
2019-04-05T14:25:59.601Z,1512.00
2019-04-05T14:26:56.410Z,1496.00
2019-04-05T14:27:59.514Z,1552.00
2019-04-05T14:28:56.535Z,1648.00
2019-04-05T14:29:56.461Z,1688.00
2019-04-05T14:30:56.504Z,1696.00
2019-04-05T14:31:56.548Z,1636.00
2019-04-05T14:32:56.328Z,1572.00
2019-04-05T14:33:56.314Z,1456.00
2019-04-05T14:34:56.315Z,1348.00
2019-04-05T14:35:56.299Z,1332.00
2019-04-05T14:36:56.280Z,1448.00
2019-04-05T14:37:56.484Z,1452.00
2019-04-05T14:38:56.492Z,1240.00
2019-04-05T14:39:56.450Z,1116.00
2019-04-05T14:40:56.443Z,1076.00
2019-04-05T14:42:08.828Z,976.00
2019-04-05T14:43:21.345Z,956.00
2019-04-05T14:44:18.979Z,1052.00
2019-04-05T14:45:18.977Z,1100.00
2019-04-05T14:46:18.966Z,1044.00
2019-04-05T14:47:20.005Z,944.00
2019-04-05T14:48:18.928Z,916.00
2019-04-05T14:49:18.919Z,952.00
2019-04-05T14:50:18.908Z,1036.00
2019-04-05T14:51:18.902Z,1112.00
2019-04-05T14:52:18.884Z,1144.00
2019-04-05T14:53:18.890Z,1088.00
2019-04-05T14:54:18.863Z,960.00
2019-04-05T14:56:18.851Z,764.00
2019-04-05T14:57:18.855Z,740.00
2019-04-05T14:58:19.391Z,732.00
2019-04-05T14:59:18.808Z,720.00
2019-04-05T15:15:03.202Z,908.00
2019-04-05T15:16:03.194Z,876.00
2019-04-05T15:17:03.165Z,856.00
2019-04-05T15:18:03.167Z,816.00
2019-04-05T15:19:03.147Z,760.00
2019-04-05T15:20:05.118Z,720.00
2019-04-05T15:21:05.614Z,696.00
2019-04-05T15:22:06.060Z,660.00
2019-04-05T15:24:03.085Z,688.00
2019-04-05T15:25:03.413Z,656.00
2019-04-05T15:27:03.060Z,672.00
2019-04-05T15:28:03.057Z,676.00
2019-04-05T15:29:03.034Z,660.00
2019-04-05T15:30:03.047Z,636.00
2019-04-05T15:31:03.007Z,612.00
2019-04-05T15:32:03.269Z,600.00
2019-04-05T15:33:02.989Z,628.00
2019-04-05T15:34:02.974Z,636.00
2019-04-05T15:35:02.978Z,648.00
2019-04-05T15:36:03.207Z,644.00
2019-04-05T15:37:02.940Z,652.00
2019-04-05T15:38:02.935Z,664.00
2019-04-05T15:39:02.931Z,676.00
2019-04-05T15:41:02.894Z,688.00
2019-04-05T15:42:02.880Z,676.00
2019-04-05T15:43:02.877Z,672.00
2019-04-05T15:45:02.854Z,688.00
2019-04-05T15:46:02.839Z,712.00
2019-04-05T15:47:02.849Z,748.00
2019-04-05T15:51:02.783Z,668.00
2019-04-05T15:52:02.769Z,636.00
2019-04-05T15:53:03.014Z,600.00
2019-04-05T15:54:02.754Z,564.00
2019-04-05T15:55:03.774Z,540.00
2019-04-05T15:57:03.770Z,504.00
2019-04-05T15:58:03.697Z,508.00
2019-04-05T15:59:04.628Z,516.00
2019-04-05T16:01:04.421Z,532.00
2019-04-05T16:02:03.928Z,504.00
2019-04-05T16:07:02.612Z,512.00
2019-04-05T16:08:02.589Z,520.00
2019-04-05T16:10:02.567Z,504.00
2019-04-05T16:11:02.557Z,496.00
2019-04-05T16:12:02.570Z,476.00
2019-04-05T16:13:02.537Z,444.00
2019-04-05T16:14:02.526Z,432.00
2019-04-05T16:15:02.521Z,440.00
2019-04-05T16:16:02.513Z,416.00
2019-04-05T16:19:02.489Z,420.00
2019-04-05T16:20:02.525Z,404.00
2019-04-05T16:21:02.462Z,384.00
2019-04-05T16:22:02.438Z,372.00
2019-04-05T16:24:02.415Z,328.00
2019-04-05T16:25:03.828Z,312.00
2019-04-05T16:27:02.377Z,280.00
2019-04-05T16:28:02.380Z,276.00
2019-04-05T16:29:02.359Z,284.00
2019-04-05T16:31:02.332Z,288.00
2019-04-05T16:33:02.315Z,292.00
2019-04-05T16:34:02.305Z,288.00
2019-04-05T16:35:02.294Z,288.00
2019-04-05T16:36:02.279Z,268.00
2019-04-05T16:38:02.269Z,248.00
2019-04-05T16:39:02.249Z,248.00
2019-04-05T16:40:02.236Z,244.00
2019-04-05T16:41:02.223Z,252.00
2019-04-05T16:42:02.230Z,252.00
2019-04-05T16:43:03.101Z,264.00
2019-04-05T16:47:02.218Z,228.00
2019-04-05T16:48:02.162Z,220.00
2019-04-05T16:49:02.131Z,204.00
2019-04-05T16:51:02.117Z,184.00
2019-04-05T16:52:02.118Z,192.00
2019-04-05T16:53:02.091Z,196.00
2019-04-05T16:54:02.079Z,200.00
2019-04-05T16:55:02.082Z,196.00
2019-04-05T16:56:02.061Z,184.00
2019-04-05T16:57:02.049Z,176.00
2019-04-05T16:59:02.034Z,184.00
2019-04-05T17:00:02.017Z,180.00
2019-04-05T17:01:01.998Z,172.00
2019-04-05T17:03:02.004Z,168.00
2019-04-05T17:05:01.951Z,144.00
2019-04-05T17:06:01.952Z,128.00
2019-04-05T17:07:01.933Z,120.00
2019-04-05T18:00:23.267Z,12.00
